createdAt,value
2018-11-23T00:00:40.125Z,80.93
2018-11-23T00:03:07.705Z,80.78
2018-11-23T00:05:35.699Z,80.92
2018-11-23T00:08:03.262Z,81.23
2018-11-23T00:10:32.066Z,81.00
2018-11-23T00:12:59.739Z,80.71
2018-11-23T00:15:27.301Z,81.13
2018-11-23T00:17:55.003Z,81.07
2018-11-23T00:20:23.961Z,81.40
2018-11-23T00:22:51.526Z,81.27
2018-11-23T00:25:20.289Z,81.17
2018-11-23T00:27:47.988Z,81.07
2018-11-23T00:30:16.384Z,81.04
2018-11-23T00:32:44.822Z,80.92
2018-11-23T00:35:14.664Z,81.08
2018-11-23T00:37:42.602Z,81.21
2018-11-23T00:40:11.889Z,80.76
2018-11-23T00:42:39.687Z,79.35
2018-11-23T00:45:08.350Z,77.91
2018-11-23T00:47:35.971Z,77.37
2018-11-23T00:50:03.659Z,77.94
2018-11-23T00:52:31.548Z,78.78
2018-11-23T00:54:59.079Z,79.16
2018-11-23T00:57:26.647Z,80.32
2018-11-23T00:59:54.531Z,79.77
2018-11-23T01:02:22.077Z,80.74
2018-11-23T01:04:49.685Z,80.56
2018-11-23T01:07:17.721Z,81.39
2018-11-23T01:09:45.256Z,81.96
2018-11-23T01:12:12.799Z,82.40
2018-11-23T01:14:40.382Z,82.65
2018-11-23T01:17:07.916Z,82.53
2018-11-23T01:19:35.496Z,82.56
2018-11-23T01:22:03.058Z,82.18
2018-11-23T01:24:30.639Z,82.27
2018-11-23T01:26:58.227Z,82.14
2018-11-23T01:29:25.806Z,82.37
2018-11-23T01:31:53.355Z,82.70
2018-11-23T01:34:20.910Z,82.77
2018-11-23T01:36:48.480Z,83.33
2018-11-23T01:39:16.012Z,83.96
2018-11-23T01:41:43.587Z,83.82
2018-11-23T01:44:11.147Z,83.73
2018-11-23T01:46:38.687Z,83.51
2018-11-23T01:49:06.311Z,83.18
2018-11-23T01:51:33.887Z,82.90
2018-11-23T01:54:01.453Z,83.16
2018-11-23T01:56:29.108Z,83.36
2018-11-23T01:58:56.954Z,83.61
2018-11-23T02:01:25.641Z,83.82
2018-11-23T02:03:53.222Z,84.24
2018-11-23T02:06:20.792Z,84.05
2018-11-23T02:08:48.738Z,84.36
2018-11-23T02:11:16.311Z,84.20
2018-11-23T02:13:43.875Z,84.07
2018-11-23T02:16:11.464Z,83.84
2018-11-23T02:18:39.011Z,83.90
2018-11-23T02:21:06.619Z,84.17
2018-11-23T02:23:34.197Z,84.20
2018-11-23T02:26:02.087Z,84.47
2018-11-23T02:28:29.619Z,83.77
2018-11-23T02:30:57.601Z,83.62
2018-11-23T02:33:25.126Z,83.46
2018-11-23T02:35:52.675Z,83.62
2018-11-23T02:38:20.296Z,83.33
2018-11-23T02:40:47.863Z,83.67
2018-11-23T02:43:15.443Z,83.18
2018-11-23T02:45:42.982Z,83.00
2018-11-23T02:48:10.941Z,82.75
2018-11-23T02:50:38.584Z,82.86
2018-11-23T02:53:06.125Z,83.23
2018-11-23T02:55:33.935Z,83.46
2018-11-23T02:58:01.496Z,83.75
2018-11-23T03:00:29.058Z,83.80
2018-11-23T03:02:56.624Z,83.83
2018-11-23T03:05:24.228Z,83.68
2018-11-23T03:07:51.780Z,83.57
2018-11-23T03:10:19.632Z,83.73
2018-11-23T03:12:47.824Z,83.52
2018-11-23T03:15:16.664Z,83.67
2018-11-23T03:17:44.812Z,83.49
2018-11-23T03:20:15.036Z,83.62
2018-11-23T03:22:42.588Z,83.17
2018-11-23T03:25:10.648Z,83.62
2018-11-23T03:27:38.218Z,83.43
2018-11-23T03:30:11.056Z,83.53
2018-11-23T03:32:38.943Z,83.48
2018-11-23T03:35:06.528Z,83.74
2018-11-23T03:37:34.062Z,83.95
2018-11-23T03:40:01.709Z,83.47
2018-11-23T03:42:29.244Z,83.94
2018-11-23T03:44:56.792Z,83.97
2018-11-23T03:47:24.344Z,84.32
2018-11-23T03:49:51.873Z,84.76
2018-11-23T03:52:20.056Z,84.59
2018-11-23T03:54:47.608Z,84.43
2018-11-23T03:57:15.148Z,84.90
2018-11-23T03:59:42.703Z,84.41
2018-11-23T04:02:10.320Z,84.32
2018-11-23T04:04:38.124Z,83.51
2018-11-23T04:07:05.767Z,83.66
2018-11-23T04:09:33.318Z,83.56
2018-11-23T04:12:01.173Z,83.15
2018-11-23T04:14:28.794Z,83.76
2018-11-23T04:16:56.453Z,83.74
2018-11-23T04:19:24.137Z,84.14
2018-11-23T04:21:51.698Z,84.64
2018-11-23T04:24:19.249Z,84.29
2018-11-23T04:26:46.820Z,84.90
2018-11-23T04:29:14.385Z,84.97
2018-11-23T04:31:41.947Z,85.06
2018-11-23T04:34:09.802Z,84.71
2018-11-23T04:36:37.338Z,84.97
2018-11-23T04:39:06.107Z,85.54
2018-11-23T04:41:33.689Z,85.10
2018-11-23T04:44:01.764Z,84.90
2018-11-23T04:46:29.312Z,84.29
2018-11-23T04:48:56.871Z,85.03
2018-11-23T04:51:24.479Z,84.92
2018-11-23T04:53:52.022Z,85.75
2018-11-23T04:56:19.870Z,85.89
2018-11-23T04:58:47.422Z,85.62
2018-11-23T05:01:15.076Z,85.94
2018-11-23T05:03:42.658Z,85.92
2018-11-23T05:06:10.220Z,87.35
2018-11-23T05:08:38.185Z,87.28
2018-11-23T05:11:05.772Z,86.56
2018-11-23T05:13:33.303Z,85.03
2018-11-23T05:16:01.576Z,84.29
2018-11-23T05:18:29.160Z,84.61
2018-11-23T05:20:56.864Z,84.19
2018-11-23T05:23:24.565Z,84.04
2018-11-23T05:25:52.126Z,84.53
2018-11-23T05:28:21.571Z,84.93
2018-11-23T05:30:49.387Z,84.75
2018-11-23T05:33:16.971Z,84.96
2018-11-23T05:35:44.619Z,84.88
2018-11-23T05:38:12.199Z,84.76
2018-11-23T05:40:39.740Z,84.85
2018-11-23T05:43:07.335Z,84.95
2018-11-23T05:45:34.996Z,85.08
2018-11-23T05:48:02.561Z,85.33
2018-11-23T05:50:30.104Z,86.40
2018-11-23T05:52:57.648Z,86.57
2018-11-23T05:55:25.208Z,86.61
2018-11-23T05:57:52.915Z,86.20
2018-11-23T06:00:22.333Z,86.27
2018-11-23T06:02:50.070Z,86.48
2018-11-23T06:05:17.975Z,86.12
2018-11-23T06:07:45.575Z,85.95
2018-11-23T06:10:14.417Z,85.80
2018-11-23T06:12:42.070Z,86.33
2018-11-23T06:15:10.761Z,86.50
2018-11-23T06:17:38.620Z,86.14
2018-11-23T06:20:07.265Z,87.26
2018-11-23T06:22:34.818Z,87.47
2018-11-23T06:25:02.408Z,86.76
2018-11-23T06:27:29.980Z,86.72
2018-11-23T06:29:57.524Z,87.01
2018-11-23T06:32:30.815Z,86.76
2018-11-23T06:34:58.936Z,86.13
2018-11-23T06:37:26.516Z,85.76
2018-11-23T06:39:54.056Z,86.04
2018-11-23T06:42:22.646Z,86.79
2018-11-23T06:44:50.204Z,86.47
2018-11-23T06:47:18.032Z,86.59
2018-11-23T06:49:45.600Z,86.43
2018-11-23T06:52:13.172Z,86.55
2018-11-23T06:54:40.757Z,86.77
2018-11-23T06:57:08.325Z,87.35
2018-11-23T06:59:35.895Z,86.86
2018-11-23T07:02:03.640Z,86.75
2018-11-23T07:04:31.189Z,87.00
2018-11-23T07:06:58.743Z,86.72
2018-11-23T07:09:26.355Z,86.70
2018-11-23T07:11:53.968Z,86.56
2018-11-23T07:14:21.556Z,85.72
2018-11-23T07:16:49.186Z,85.30
2018-11-23T07:19:16.759Z,84.74
2018-11-23T07:21:44.304Z,84.45
2018-11-23T07:24:11.818Z,84.57
2018-11-23T07:26:39.508Z,84.59
2018-11-23T07:29:07.060Z,84.80
2018-11-23T07:31:34.720Z,84.59
2018-11-23T07:34:02.273Z,84.58
2018-11-23T07:36:29.850Z,84.06
2018-11-23T07:38:57.831Z,83.02
2018-11-23T07:41:31.130Z,83.66
2018-11-23T07:43:58.723Z,83.76
2018-11-23T07:46:26.255Z,83.76
2018-11-23T07:48:53.883Z,82.14
2018-11-23T07:51:21.471Z,79.73
2018-11-23T07:53:49.025Z,77.54
2018-11-23T07:56:16.573Z,76.48
2018-11-23T07:58:44.187Z,75.45
2018-11-23T08:01:11.767Z,73.60
2018-11-23T08:03:39.342Z,72.75
2018-11-23T08:06:06.903Z,72.01
2018-11-23T08:08:34.431Z,72.14
2018-11-23T08:11:07.252Z,70.71
2018-11-23T08:13:35.330Z,67.90
2018-11-23T08:16:02.945Z,66.75
2018-11-23T08:18:30.482Z,66.85
2018-11-23T08:20:58.056Z,64.82
2018-11-23T08:23:25.980Z,59.29
2018-11-23T08:25:53.574Z,55.80
2018-11-23T08:28:21.145Z,50.35
2018-11-23T08:30:48.707Z,47.25
2018-11-23T08:33:16.267Z,45.38
2018-11-23T08:35:43.803Z,43.46
2018-11-23T08:38:11.383Z,39.85
2018-11-23T08:40:38.980Z,37.24
2018-11-23T08:43:06.564Z,37.25
2018-11-23T08:45:35.037Z,34.09
2018-11-23T08:48:02.645Z,33.92
2018-11-23T08:50:30.742Z,31.04
2018-11-23T08:52:58.366Z,29.95
2018-11-23T08:55:26.403Z,27.76
2018-11-23T08:57:53.997Z,26.43
2018-11-23T09:00:22.948Z,26.99
2018-11-23T09:02:51.827Z,26.22
2018-11-23T09:05:19.427Z,24.67
2018-11-23T09:07:47.902Z,23.19
2018-11-23T09:10:16.651Z,21.82
2018-11-23T09:12:45.459Z,21.02
2018-11-23T09:15:13.933Z,20.46
2018-11-23T09:17:42.107Z,22.36
2018-11-23T09:20:10.775Z,21.47
2018-11-23T09:22:38.339Z,20.41
2018-11-23T09:25:06.768Z,21.12
2018-11-23T09:27:34.362Z,17.98
2018-11-23T09:30:01.984Z,19.70
2018-11-23T09:32:29.596Z,18.96
2018-11-23T09:34:57.153Z,18.98
2018-11-23T09:37:24.717Z,18.26
2018-11-23T09:39:52.345Z,17.59
2018-11-23T09:42:20.049Z,15.70
2018-11-23T09:44:47.624Z,16.00
2018-11-23T09:47:15.199Z,16.50
2018-11-23T09:49:42.771Z,16.66
2018-11-23T09:52:10.312Z,16.29
2018-11-23T09:54:37.901Z,16.83
2018-11-23T09:57:05.455Z,16.91
2018-11-23T09:59:32.981Z,16.89
2018-11-23T10:02:00.751Z,17.32
2018-11-23T10:04:28.602Z,16.86
2018-11-23T10:06:56.182Z,16.27
2018-11-23T10:09:23.768Z,15.46
2018-11-23T10:11:51.350Z,16.60
2018-11-23T10:14:18.955Z,16.79
2018-11-23T10:16:46.600Z,16.13
2018-11-23T10:19:18.687Z,15.81
2018-11-23T10:21:46.244Z,16.55
2018-11-23T10:24:13.845Z,16.43
2018-11-23T10:26:41.444Z,16.82
2018-11-23T10:29:09.036Z,16.65
2018-11-23T10:31:36.728Z,16.86
2018-11-23T10:34:04.838Z,15.62
2018-11-23T10:36:32.446Z,18.23
2018-11-23T10:39:00.022Z,19.05
2018-11-23T10:41:27.621Z,18.09
2018-11-23T10:43:55.201Z,18.46
2018-11-23T10:46:22.827Z,18.95
2018-11-23T10:48:50.423Z,17.92
2018-11-23T10:51:17.999Z,17.79
2018-11-23T10:56:13.109Z,18.56
2018-11-23T10:58:40.746Z,18.91
2018-11-23T11:02:14.266Z,18.65
2018-11-23T11:04:47.782Z,20.45
2018-11-23T11:07:15.387Z,21.83
2018-11-23T11:09:42.972Z,23.18
2018-11-23T11:12:10.662Z,23.23
2018-11-23T11:14:38.225Z,23.95
2018-11-23T11:17:05.967Z,24.91
2018-11-23T11:19:33.617Z,26.49
2018-11-23T11:22:01.414Z,29.43
2018-11-23T11:24:29.032Z,30.34
2018-11-23T11:26:56.618Z,32.42
2018-11-23T11:29:24.240Z,34.08
2018-11-23T11:31:51.929Z,35.98
2018-11-23T11:34:19.517Z,38.50
2018-11-23T11:36:47.069Z,40.71
2018-11-23T11:39:18.062Z,43.33
2018-11-23T11:41:42.763Z,43.89
2018-11-23T11:44:10.450Z,44.00
2018-11-23T11:46:38.058Z,44.30
2018-11-23T11:49:05.832Z,45.25
2018-11-23T11:51:33.426Z,45.16
2018-11-23T11:54:00.960Z,45.83
2018-11-23T11:56:28.629Z,44.84
2018-11-23T11:58:56.185Z,46.14
2018-11-23T12:01:25.387Z,46.57
2018-11-23T12:03:53.328Z,47.79
2018-11-23T12:06:20.908Z,47.88
2018-11-23T12:08:48.501Z,48.66
2018-11-23T12:11:16.137Z,49.03
2018-11-23T12:13:43.668Z,48.59
2018-11-23T12:16:11.302Z,49.07
2018-11-23T12:18:38.897Z,49.43
2018-11-23T12:21:06.542Z,51.20
2018-11-23T12:23:34.171Z,50.38
2018-11-23T12:26:01.743Z,50.23
2018-11-23T12:28:29.335Z,51.29
2018-11-23T12:30:56.952Z,52.78
2018-11-23T12:33:24.535Z,53.22
2018-11-23T12:35:52.089Z,53.08
2018-11-23T12:38:19.784Z,52.29
2018-11-23T12:40:47.400Z,52.56
2018-11-23T12:43:15.000Z,52.80
2018-11-23T12:45:42.633Z,53.00
2018-11-23T12:48:10.234Z,53.64
2018-11-23T12:50:37.849Z,54.56
2018-11-23T12:53:06.486Z,54.67
2018-11-23T12:55:33.156Z,55.33
2018-11-23T12:58:00.804Z,54.39
2018-11-23T13:00:29.085Z,55.15
2018-11-23T13:02:58.039Z,55.87
2018-11-23T13:05:26.463Z,56.49
2018-11-23T13:07:55.250Z,55.73
2018-11-23T13:10:23.716Z,54.96
2018-11-23T13:12:51.756Z,55.47
2018-11-23T13:15:20.067Z,55.52
2018-11-23T13:17:48.288Z,54.38
2018-11-23T13:20:16.175Z,54.05
2018-11-23T13:22:43.948Z,52.00
2018-11-23T13:25:13.169Z,51.81
2018-11-23T13:27:40.732Z,51.45
2018-11-23T13:30:10.345Z,53.67
2018-11-23T13:32:37.971Z,53.31
2018-11-23T13:35:06.667Z,53.65
2018-11-23T13:37:34.285Z,54.33
2018-11-23T13:40:02.464Z,55.17
2018-11-23T13:42:30.121Z,55.73
2018-11-23T13:44:57.772Z,56.24
2018-11-23T13:47:25.390Z,56.29
2018-11-23T13:49:52.945Z,56.10
2018-11-23T13:52:20.516Z,55.66
2018-11-23T13:54:48.076Z,55.87
2018-11-23T13:57:15.749Z,54.66
2018-11-23T13:59:43.371Z,55.95
2018-11-23T14:02:10.970Z,55.67
2018-11-23T14:04:38.532Z,55.99
2018-11-23T14:07:06.126Z,56.42
2018-11-23T14:09:33.725Z,57.09
2018-11-23T14:12:01.402Z,57.11
2018-11-23T14:14:29.005Z,57.07
2018-11-23T14:16:56.755Z,57.63
2018-11-23T14:19:24.328Z,58.33
2018-11-23T14:21:51.861Z,58.38
2018-11-23T14:24:19.495Z,57.23
2018-11-23T14:26:47.092Z,58.81
2018-11-23T14:29:14.719Z,59.22
2018-11-23T14:31:42.374Z,58.38
2018-11-23T14:34:10.004Z,59.23
2018-11-23T14:36:37.576Z,59.65
2018-11-23T14:39:07.171Z,59.19
2018-11-23T14:41:34.844Z,60.13
2018-11-23T14:44:06.968Z,60.12
2018-11-23T14:46:31.103Z,60.43
2018-11-23T14:48:58.697Z,60.38
2018-11-23T14:51:26.336Z,60.68
2018-11-23T14:53:53.901Z,60.69
2018-11-23T14:56:21.540Z,60.58
2018-11-23T14:58:49.116Z,60.18
2018-11-23T15:01:16.744Z,60.28
2018-11-23T15:03:44.293Z,60.39
2018-11-23T15:06:11.844Z,60.91
2018-11-23T15:08:39.462Z,61.22
2018-11-23T15:11:07.067Z,61.62
2018-11-23T15:13:34.655Z,62.19
2018-11-23T15:16:02.305Z,61.93
2018-11-23T15:18:29.897Z,62.82
2018-11-23T15:20:58.102Z,62.43
2018-11-23T15:23:25.720Z,62.42
2018-11-23T15:25:53.333Z,62.33
2018-11-23T15:28:20.925Z,62.71
2018-11-23T15:30:48.620Z,62.96
2018-11-23T15:33:17.263Z,62.86
2018-11-23T15:35:45.099Z,62.52
2018-11-23T15:38:13.539Z,63.22
2018-11-23T15:40:41.225Z,62.26
2018-11-23T15:43:10.537Z,63.56
2018-11-23T15:45:38.264Z,62.63
2018-11-23T15:48:06.457Z,62.67
2018-11-23T15:50:36.268Z,63.20
2018-11-23T15:53:04.136Z,61.37
2018-11-23T15:55:32.458Z,62.12
2018-11-23T15:58:01.707Z,63.69
2018-11-23T16:00:30.778Z,64.04
2018-11-23T16:02:58.360Z,64.13
2018-11-23T16:05:26.038Z,64.33
2018-11-23T16:07:54.568Z,64.54
2018-11-23T16:10:23.995Z,64.19
2018-11-23T16:12:52.782Z,64.38
2018-11-23T16:15:21.168Z,63.54
2018-11-23T16:17:49.227Z,64.08
2018-11-23T16:20:21.200Z,65.08
2018-11-23T16:22:50.326Z,65.62
2018-11-23T16:25:18.032Z,65.64
2018-11-23T16:27:46.964Z,66.36
2018-11-23T16:30:16.437Z,67.36
2018-11-23T16:32:45.037Z,67.74
2018-11-23T16:35:13.634Z,67.78
2018-11-23T16:37:41.263Z,68.30
2018-11-23T16:40:10.485Z,68.70
2018-11-23T16:42:38.645Z,68.98
2018-11-23T16:45:08.659Z,68.75
2018-11-23T16:47:36.232Z,68.67
2018-11-23T16:50:03.931Z,68.52
2018-11-23T16:52:31.531Z,67.95
2018-11-23T16:54:59.307Z,67.90
2018-11-23T16:57:26.926Z,68.26
2018-11-23T16:59:56.815Z,68.64
2018-11-23T17:02:24.570Z,68.58
2018-11-23T17:04:52.196Z,68.79
2018-11-23T17:07:19.970Z,68.19
2018-11-23T17:09:47.547Z,68.14
2018-11-23T17:12:15.120Z,67.82
2018-11-23T17:14:42.704Z,67.28
2018-11-23T17:17:10.344Z,66.49
2018-11-23T17:19:37.923Z,66.58
2018-11-23T17:22:05.812Z,66.73
2018-11-23T17:24:33.348Z,66.22
2018-11-23T17:27:00.989Z,66.06
2018-11-23T17:29:28.547Z,65.84
2018-11-23T17:31:56.146Z,66.31
2018-11-23T17:34:24.728Z,66.33
2018-11-23T17:36:52.291Z,66.60
2018-11-23T17:39:19.869Z,66.56
2018-11-23T17:41:47.635Z,66.94
2018-11-23T17:44:15.261Z,66.92
2018-11-23T17:46:42.822Z,66.53
2018-11-23T17:49:10.738Z,67.30
2018-11-23T17:51:38.396Z,67.35
2018-11-23T17:54:05.960Z,66.35
2018-11-23T17:56:33.808Z,65.97
2018-11-23T17:59:01.411Z,66.77
2018-11-23T18:01:28.969Z,65.48
2018-11-23T18:03:56.583Z,66.38
2018-11-23T18:06:25.290Z,66.46
2018-11-23T18:08:52.979Z,66.85
2018-11-23T18:11:20.644Z,67.23
2018-11-23T18:13:48.201Z,67.35
2018-11-23T18:16:15.774Z,67.87
2018-11-23T18:18:43.375Z,68.88
2018-11-23T18:21:10.967Z,69.03
2018-11-23T18:23:38.547Z,68.95
2018-11-23T18:26:06.135Z,68.95
2018-11-23T18:28:33.748Z,69.09
2018-11-23T18:31:01.343Z,69.28
2018-11-23T18:33:28.925Z,69.29
2018-11-23T18:35:56.523Z,69.52
2018-11-23T18:38:24.144Z,69.59
2018-11-23T18:40:51.756Z,69.05
2018-11-23T18:43:19.331Z,69.59
2018-11-23T18:45:46.999Z,69.68
2018-11-23T18:48:14.605Z,69.77
2018-11-23T18:50:42.210Z,69.98
2018-11-23T18:53:09.888Z,69.72
2018-11-23T18:55:37.451Z,69.31
2018-11-23T18:58:05.096Z,69.53
2018-11-23T19:00:32.658Z,69.65
2018-11-23T19:03:00.309Z,69.69
2018-11-23T19:05:28.029Z,70.02
2018-11-23T19:07:55.613Z,70.11
2018-11-23T19:10:23.251Z,70.42
2018-11-23T19:12:51.317Z,70.17
2018-11-23T19:15:25.107Z,70.58
2018-11-23T19:17:46.770Z,70.55
2018-11-23T19:20:15.629Z,70.42
2018-11-23T19:22:43.949Z,69.27
2018-11-23T19:25:11.603Z,69.33
2018-11-23T19:27:39.221Z,70.69
2018-11-23T19:30:08.733Z,71.42
2018-11-23T19:32:36.335Z,71.14
2018-11-23T19:35:04.250Z,70.65
2018-11-23T19:37:31.842Z,70.37
2018-11-23T19:39:59.523Z,70.78
2018-11-23T19:42:27.104Z,70.74
2018-11-23T19:44:54.725Z,71.04
2018-11-23T19:47:23.000Z,71.26
2018-11-23T19:49:50.603Z,71.51
2018-11-23T19:52:18.225Z,71.85
2018-11-23T19:54:45.856Z,71.67
2018-11-23T19:57:13.425Z,71.62
2018-11-23T19:59:41.096Z,71.71
2018-11-23T20:02:08.661Z,71.62
2018-11-23T20:04:36.243Z,71.85
2018-11-23T20:07:03.894Z,72.18
2018-11-23T20:09:31.509Z,72.35
2018-11-23T20:11:59.074Z,72.69
2018-11-23T20:14:26.954Z,72.74
2018-11-23T20:16:54.574Z,72.82
2018-11-23T20:19:22.157Z,73.23
2018-11-23T20:21:49.788Z,73.61
2018-11-23T20:24:17.429Z,73.64
2018-11-23T20:26:45.026Z,73.29
2018-11-23T20:29:12.624Z,73.43
2018-11-23T20:31:40.504Z,73.52
2018-11-23T20:34:08.155Z,73.26
2018-11-23T20:36:35.770Z,73.43
2018-11-23T20:39:05.243Z,73.85
2018-11-23T20:41:32.844Z,74.01
2018-11-23T20:44:00.418Z,73.97
2018-11-23T20:46:28.019Z,73.81
2018-11-23T20:48:55.607Z,73.85
2018-11-23T20:51:23.201Z,73.92
2018-11-23T20:53:50.874Z,73.57
2018-11-23T20:56:18.427Z,73.65
2018-11-23T20:58:45.995Z,73.65
2018-11-23T21:01:13.632Z,73.58
2018-11-23T21:03:41.211Z,73.90
2018-11-23T21:06:08.822Z,73.63
2018-11-23T21:08:36.623Z,73.01
2018-11-23T21:11:04.273Z,73.12
2018-11-23T21:13:31.863Z,72.79
2018-11-23T21:15:59.748Z,71.94
2018-11-23T21:18:27.385Z,72.60
2018-11-23T21:20:54.951Z,73.40
2018-11-23T21:23:22.561Z,74.25
2018-11-23T21:25:50.127Z,74.48
2018-11-23T21:28:17.704Z,74.48
2018-11-23T21:30:45.279Z,74.98
2018-11-23T21:33:12.866Z,74.78
2018-11-23T21:35:40.395Z,74.78
2018-11-23T21:38:07.992Z,74.69
2018-11-23T21:40:35.612Z,74.74
2018-11-23T21:43:03.213Z,74.36
2018-11-23T21:45:30.811Z,74.68
2018-11-23T21:47:58.390Z,75.06
2018-11-23T21:50:26.005Z,75.06
2018-11-23T21:52:53.620Z,75.06
2018-11-23T21:55:21.691Z,75.25
2018-11-23T21:57:49.344Z,74.88
2018-11-23T22:00:16.956Z,74.94
2018-11-23T22:02:44.558Z,74.97
2018-11-23T22:05:13.189Z,76.00
2018-11-23T22:07:40.809Z,76.22
2018-11-23T22:10:11.051Z,76.34
2018-11-23T22:12:38.692Z,76.36
2018-11-23T22:15:08.414Z,76.64
2018-11-23T22:17:35.989Z,76.27
2018-11-23T22:20:04.748Z,76.68
2018-11-23T22:22:32.370Z,76.62
2018-11-23T22:25:00.240Z,76.68
2018-11-23T22:27:27.822Z,76.81
2018-11-23T22:29:55.382Z,76.70
2018-11-23T22:32:22.961Z,76.68
2018-11-23T22:34:50.537Z,76.59
2018-11-23T22:37:18.121Z,76.70
2018-11-23T22:39:45.738Z,76.45
2018-11-23T22:42:13.317Z,76.59
2018-11-23T22:44:40.956Z,76.83
2018-11-23T22:47:08.578Z,77.61
2018-11-23T22:49:36.212Z,77.84
2018-11-23T22:52:04.788Z,77.27
2018-11-23T22:54:32.345Z,76.77
2018-11-23T22:56:59.904Z,77.43
2018-11-23T22:59:27.506Z,78.14
2018-11-23T23:01:55.143Z,77.53
2018-11-23T23:04:22.728Z,77.73
2018-11-23T23:06:50.801Z,77.93
2018-11-23T23:09:18.382Z,78.78
2018-11-23T23:11:45.941Z,79.45
2018-11-23T23:14:13.520Z,80.57
2018-11-23T23:16:41.079Z,80.74
2018-11-23T23:19:08.732Z,80.60
2018-11-23T23:21:36.336Z,80.11
2018-11-23T23:24:11.349Z,78.90
2018-11-23T23:26:31.600Z,78.27
2018-11-23T23:28:59.191Z,78.56
2018-11-23T23:31:26.857Z,78.33
2018-11-23T23:33:54.436Z,79.67
2018-11-23T23:36:22.035Z,79.24
2018-11-23T23:38:49.636Z,80.08
2018-11-23T23:41:17.212Z,80.71
2018-11-23T23:43:44.769Z,81.08
2018-11-23T23:46:12.413Z,81.32
2018-11-23T23:48:39.992Z,81.10
2018-11-23T23:51:07.596Z,81.35
2018-11-23T23:53:35.181Z,81.32
2018-11-23T23:56:02.785Z,81.51
2018-11-23T23:58:30.370Z,81.59
